Time,TemperatureF,DewpointF,PressureIn,WindDirection,WindDirectionDegrees,WindSpeedMPH,WindSpeedGustMPH,Humidity,HourlyPrecipIn,Conditions,Clouds,dailyrainin,SolarRadiationWatts/m^2,SoftwareType,DateUTC
2013-05-11 00:03:00,57.0,56.0,-100.00,ENE,71,7.0,13.0,98,0.00,,,0.00,0.000000,,2013-05-11 10:03:00,
2013-05-11 00:12:00,57.0,56.0,-100.00,ENE,71,7.0,13.0,98,0.00,,,0.00,0.000000,,2013-05-11 10:12:00,
2013-05-11 00:22:00,57.0,56.0,-100.00,ENE,71,7.0,13.0,98,0.00,,,0.00,0.000000,,2013-05-11 10:22:00,
2013-05-11 00:32:00,57.0,56.0,-100.00,ENE,71,7.0,13.0,98,0.00,,,0.00,0.000000,,2013-05-11 10:32:00,
2013-05-11 01:02:00,57.0,56.0,-100.00,ENE,71,8.0,12.0,98,0.00,,,0.00,0.000000,,2013-05-11 11:02:00,
2013-05-11 01:11:00,57.0,56.0,-100.00,ENE,71,8.0,12.0,98,0.00,,,0.00,0.000000,,2013-05-11 11:11:00,
2013-05-11 01:21:00,57.0,56.0,-100.00,ENE,71,8.0,12.0,98,0.00,,,0.00,0.000000,,2013-05-11 11:21:00,
2013-05-11 01:31:00,57.0,56.0,-100.00,ENE,71,8.0,12.0,98,0.00,,,0.00,0.000000,,2013-05-11 11:31:00,
2013-05-11 02:01:00,57.0,55.0,-100.00,ENE,78,4.0,10.0,92,0.00,,,-99.99,0.000000,,2013-05-11 12:01:00,
2013-05-11 02:11:00,57.0,55.0,-100.00,ENE,78,4.0,10.0,92,0.00,,,-99.99,0.000000,,2013-05-11 12:11:00,
2013-05-11 02:21:00,57.0,55.0,-100.00,ENE,78,4.0,10.0,92,0.00,,,-99.99,0.000000,,2013-05-11 12:21:00,
2013-05-11 02:32:00,57.0,55.0,-100.00,ENE,78,4.0,10.0,92,0.00,,,-99.99,0.000000,,2013-05-11 12:32:00,
2013-05-11 03:01:00,57.0,55.0,-100.00,ENE,71,5.0,10.0,92,0.00,,,-99.99,0.000000,,2013-05-11 13:01:00,
2013-05-11 03:11:00,57.0,55.0,-100.00,ENE,71,5.0,10.0,92,0.00,,,-99.99,0.000000,,2013-05-11 13:11:00,
2013-05-11 03:21:00,57.0,55.0,-100.00,ENE,71,5.0,10.0,92,0.00,,,-99.99,0.000000,,2013-05-11 13:21:00,
2013-05-11 03:31:00,57.0,55.0,-100.00,ENE,71,5.0,10.0,92,0.00,,,-99.99,0.000000,,2013-05-11 13:31:00,
2013-05-11 04:02:00,56.0,53.0,-100.00,East,83,4.0,9.0,90,0.00,,,0.00,0.000000,,2013-05-11 14:02:00,
2013-05-11 04:11:00,56.0,53.0,-100.00,East,83,4.0,9.0,90,0.00,,,0.00,0.000000,,2013-05-11 14:11:00,
2013-05-11 04:21:00,56.0,53.0,-100.00,East,83,4.0,9.0,90,0.00,,,0.00,0.000000,,2013-05-11 14:21:00,
2013-05-11 04:32:00,56.0,53.0,-100.00,East,83,4.0,9.0,90,0.00,,,0.00,0.000000,,2013-05-11 14:32:00,
2013-05-11 05:01:00,55.0,53.0,-100.00,ENE,74,4.0,10.0,92,0.00,,,0.00,0.000000,,2013-05-11 15:01:00,
2013-05-11 05:11:00,55.0,53.0,-100.00,ENE,74,4.0,10.0,92,0.00,,,0.00,0.000000,,2013-05-11 15:11:00,
2013-05-11 05:21:00,55.0,53.0,-100.00,ENE,74,4.0,10.0,92,0.00,,,0.00,0.000000,,2013-05-11 15:21:00,
2013-05-11 05:32:00,55.0,53.0,-100.00,ENE,74,4.0,10.0,92,0.00,,,0.00,0.000000,,2013-05-11 15:32:00,
2013-05-11 06:02:00,56.0,54.0,-100.00,ENE,63,7.0,11.0,92,0.00,,,0.00,0.000000,,2013-05-11 16:02:00,
2013-05-11 06:12:00,56.0,54.0,-100.00,ENE,63,7.0,11.0,92,0.00,,,0.00,0.000000,,2013-05-11 16:12:00,
2013-05-11 06:22:00,56.0,54.0,-100.00,ENE,63,7.0,11.0,92,0.00,,,0.00,0.000000,,2013-05-11 16:22:00,
2013-05-11 06:32:00,56.0,54.0,-100.00,ENE,63,7.0,11.0,92,0.00,,,0.00,0.000000,,2013-05-11 16:32:00,
2013-05-11 07:02:00,56.0,54.0,-100.00,ENE,66,7.0,11.0,92,0.00,,,0.00,9.000000,,2013-05-11 17:02:00,
2013-05-11 07:12:00,56.0,54.0,-100.00,ENE,66,7.0,11.0,92,0.00,,,0.00,9.000000,,2013-05-11 17:12:00,
2013-05-11 07:22:00,56.0,54.0,-100.00,ENE,66,7.0,11.0,92,0.00,,,0.00,9.000000,,2013-05-11 17:22:00,
2013-05-11 07:31:00,56.0,54.0,-100.00,ENE,66,7.0,11.0,92,0.00,,,0.00,9.000000,,2013-05-11 17:31:00,
2013-05-11 08:01:00,63.0,57.0,-100.00,ENE,74,7.0,11.0,81,0.00,,,0.00,202.000000,,2013-05-11 18:01:00,
2013-05-11 08:11:00,63.0,57.0,-100.00,ENE,74,7.0,11.0,81,0.00,,,0.00,202.000000,,2013-05-11 18:11:00,
2013-05-11 08:21:00,63.0,57.0,-100.00,ENE,74,7.0,11.0,81,0.00,,,0.00,202.000000,,2013-05-11 18:21:00,
2013-05-11 08:32:00,63.0,57.0,-100.00,ENE,74,7.0,11.0,81,0.00,,,0.00,202.000000,,2013-05-11 18:32:00,
2013-05-11 09:02:00,65.0,56.0,-100.00,East,80,6.0,15.0,74,0.00,,,0.00,442.000000,,2013-05-11 19:02:00,
2013-05-11 09:11:00,65.0,56.0,-100.00,East,80,6.0,15.0,74,0.00,,,0.00,442.000000,,2013-05-11 19:11:00,
2013-05-11 09:21:00,65.0,56.0,-100.00,East,80,6.0,15.0,74,0.00,,,0.00,442.000000,,2013-05-11 19:21:00,
2013-05-11 09:32:00,65.0,56.0,-100.00,East,80,6.0,15.0,74,0.00,,,0.00,442.000000,,2013-05-11 19:32:00,
2013-05-11 10:01:00,68.0,56.0,-100.00,ENE,76,7.0,11.0,66,0.00,,,0.00,657.000000,,2013-05-11 20:01:00,
2013-05-11 10:12:00,68.0,56.0,-100.00,ENE,76,7.0,11.0,66,0.00,,,0.00,657.000000,,2013-05-11 20:12:00,
2013-05-11 10:22:00,68.0,56.0,-100.00,ENE,76,7.0,11.0,66,0.00,,,0.00,657.000000,,2013-05-11 20:22:00,
2013-05-11 10:32:00,68.0,56.0,-100.00,ENE,76,7.0,11.0,66,0.00,,,0.00,657.000000,,2013-05-11 20:32:00,
2013-05-11 11:02:00,68.0,55.0,-100.00,WSW,247,2.0,12.0,64,0.00,,,0.00,626.000000,,2013-05-11 21:02:00,
2013-05-11 11:11:00,68.0,55.0,-100.00,WSW,247,2.0,12.0,64,0.00,,,0.00,626.000000,,2013-05-11 21:11:00,
2013-05-11 11:21:00,68.0,55.0,-100.00,WSW,247,2.0,12.0,64,0.00,,,0.00,626.000000,,2013-05-11 21:21:00,
2013-05-11 11:33:00,68.0,55.0,-100.00,WSW,247,2.0,12.0,64,0.00,,,0.00,626.000000,,2013-05-11 21:33:00,
2013-05-11 12:02:00,66.0,58.0,-100.00,SE,133,1.0,7.0,75,0.00,,,0.00,272.000000,,2013-05-11 22:02:00,
2013-05-11 12:12:00,66.0,58.0,-100.00,SE,133,1.0,7.0,75,0.00,,,0.00,272.000000,,2013-05-11 22:12:00,
2013-05-11 12:22:00,66.0,58.0,-100.00,SE,133,1.0,7.0,75,0.00,,,0.00,272.000000,,2013-05-11 22:22:00,
2013-05-11 12:33:00,66.0,58.0,-100.00,SE,133,1.0,7.0,75,0.00,,,0.00,272.000000,,2013-05-11 22:33:00,
2013-05-11 13:02:00,68.0,61.0,-100.00,North,353,3.0,8.0,77,0.00,,,0.00,322.000000,,2013-05-11 23:02:00,
2013-05-11 13:11:00,68.0,61.0,-100.00,North,353,3.0,8.0,77,0.00,,,0.00,322.000000,,2013-05-11 23:11:00,
2013-05-11 13:22:00,68.0,61.0,-100.00,North,353,3.0,8.0,77,0.00,,,0.00,322.000000,,2013-05-11 23:22:00,
2013-05-11 13:31:00,68.0,61.0,-100.00,North,353,3.0,8.0,77,0.00,,,0.00,322.000000,,2013-05-11 23:31:00,
2013-05-11 14:01:00,67.0,59.0,-100.00,ENE,77,4.0,9.0,76,0.00,,,0.00,313.000000,,2013-05-12 00:01:00,
2013-05-11 14:11:00,67.0,59.0,-100.00,ENE,77,4.0,9.0,76,0.00,,,0.00,313.000000,,2013-05-12 00:11:00,
2013-05-11 14:21:00,67.0,59.0,-100.00,ENE,77,4.0,9.0,76,0.00,,,0.00,313.000000,,2013-05-12 00:21:00,
2013-05-11 14:32:00,67.0,59.0,-100.00,ENE,77,4.0,9.0,76,0.00,,,0.00,313.000000,,2013-05-12 00:32:00,
2013-05-11 15:01:00,69.0,61.0,-100.00,WSW,240,3.0,10.0,76,0.00,,,0.00,439.000000,,2013-05-12 01:01:00,
2013-05-11 15:11:00,69.0,61.0,-100.00,WSW,240,3.0,10.0,76,0.00,,,0.00,439.000000,,2013-05-12 01:11:00,
2013-05-11 15:21:00,69.0,61.0,-100.00,WSW,240,3.0,10.0,76,0.00,,,0.00,439.000000,,2013-05-12 01:21:00,
2013-05-11 15:31:00,69.0,61.0,-100.00,WSW,240,3.0,10.0,76,0.00,,,0.00,439.000000,,2013-05-12 01:31:00,
2013-05-11 16:01:00,64.0,58.0,-100.00,ENE,73,7.0,11.0,82,0.00,,,0.00,196.000000,,2013-05-12 02:01:00,
2013-05-11 16:11:00,64.0,58.0,-100.00,ENE,73,7.0,11.0,82,0.00,,,0.00,196.000000,,2013-05-12 02:11:00,
2013-05-11 16:22:00,64.0,58.0,-100.00,ENE,73,7.0,11.0,82,0.00,,,0.00,196.000000,,2013-05-12 02:22:00,
2013-05-11 16:31:00,64.0,58.0,-100.00,ENE,73,7.0,11.0,82,0.00,,,0.00,196.000000,,2013-05-12 02:31:00,
2013-05-11 17:01:00,67.0,59.0,-100.00,East,82,8.0,17.0,75,0.00,,,0.00,571.000000,,2013-05-12 03:01:00,
2013-05-11 17:11:00,67.0,59.0,-100.00,East,82,8.0,17.0,75,0.00,,,0.00,571.000000,,2013-05-12 03:11:00,
2013-05-11 17:21:00,67.0,59.0,-100.00,East,82,8.0,17.0,75,0.00,,,0.00,571.000000,,2013-05-12 03:21:00,
2013-05-11 17:32:00,67.0,59.0,-100.00,East,82,8.0,17.0,75,0.00,,,0.00,571.000000,,2013-05-12 03:32:00,
2013-05-11 18:02:00,-999.0,-99.9,-100.00,ENE,75,8.0,15.0,80,0.00,,,0.00,329.000000,,2013-05-12 04:02:00,
2013-05-11 18:12:00,62.0,56.0,-100.00,ENE,75,8.0,15.0,80,0.00,,,0.00,329.000000,,2013-05-12 04:12:00,
2013-05-11 18:22:00,62.0,56.0,-100.00,ENE,75,8.0,15.0,80,0.00,,,0.00,329.000000,,2013-05-12 04:22:00,
2013-05-11 18:32:00,62.0,56.0,-100.00,ENE,75,8.0,15.0,80,0.00,,,0.00,329.000000,,2013-05-12 04:32:00,
2013-05-11 19:02:00,60.0,56.0,-100.00,ENE,75,7.0,15.0,87,0.00,,,0.00,33.000000,,2013-05-12 05:02:00,
2013-05-11 19:11:00,60.0,56.0,-100.00,ENE,75,7.0,15.0,87,0.00,,,0.00,33.000000,,2013-05-12 05:11:00,
2013-05-11 19:21:00,60.0,56.0,-100.00,ENE,75,7.0,15.0,87,0.00,,,0.00,33.000000,,2013-05-12 05:21:00,
2013-05-11 19:31:00,60.0,56.0,-100.00,ENE,75,7.0,15.0,87,0.00,,,0.00,33.000000,,2013-05-12 05:31:00,
2013-05-11 20:01:00,58.0,54.0,-100.00,ENE,72,7.0,14.0,87,0.00,,,-99.99,7.000000,,2013-05-12 06:01:00,
2013-05-11 20:11:00,58.0,54.0,-100.00,ENE,72,7.0,14.0,87,0.00,,,-99.99,7.000000,,2013-05-12 06:11:00,
2013-05-11 20:21:00,58.0,54.0,-100.00,ENE,72,7.0,14.0,87,0.00,,,-99.99,7.000000,,2013-05-12 06:21:00,
2013-05-11 20:31:00,58.0,54.0,-100.00,ENE,72,7.0,14.0,87,0.00,,,-99.99,7.000000,,2013-05-12 06:31:00,
2013-05-11 21:01:00,57.0,53.0,-100.00,ENE,75,6.0,11.0,87,0.00,,,0.00,0.000000,,2013-05-12 07:01:00,
2013-05-11 21:11:00,57.0,53.0,-100.00,ENE,75,6.0,11.0,87,0.00,,,0.00,0.000000,,2013-05-12 07:11:00,
2013-05-11 21:21:00,57.0,53.0,-100.00,ENE,75,6.0,11.0,87,0.00,,,0.00,0.000000,,2013-05-12 07:21:00,
2013-05-11 21:32:00,57.0,53.0,-100.00,ENE,75,6.0,11.0,87,0.00,,,0.00,0.000000,,2013-05-12 07:32:00,
2013-05-11 22:02:00,58.0,54.0,-100.00,ENE,74,8.0,14.0,88,0.00,,,0.00,0.000000,,2013-05-12 08:02:00,
2013-05-11 22:11:00,58.0,54.0,-100.00,ENE,74,8.0,14.0,88,0.00,,,0.00,0.000000,,2013-05-12 08:11:00,
2013-05-11 22:21:00,58.0,54.0,-100.00,ENE,74,8.0,14.0,88,0.00,,,0.00,0.000000,,2013-05-12 08:21:00,
2013-05-11 22:31:00,58.0,54.0,-100.00,ENE,74,8.0,14.0,88,0.00,,,0.00,0.000000,,2013-05-12 08:31:00,
2013-05-11 23:01:00,57.0,54.0,-100.00,ENE,75,8.0,16.0,89,0.00,,,0.00,0.000000,,2013-05-12 09:01:00,
2013-05-11 23:11:00,57.0,54.0,-100.00,ENE,75,8.0,16.0,89,0.00,,,0.00,0.000000,,2013-05-12 09:11:00,
2013-05-11 23:21:00,57.0,54.0,-100.00,ENE,75,8.0,16.0,89,0.00,,,0.00,0.000000,,2013-05-12 09:21:00,
2013-05-11 23:32:00,57.0,54.0,-100.00,ENE,75,8.0,16.0,89,0.00,,,0.00,0.000000,,2013-05-12 09:32:00,